Details From MMCZ - Cozumel Intl
To MPTO - Tocumen Intl
Flight Number -
Tags Decoded
Created
Modified
Stats Distance 863 nm / 1,598 km
Max Altitude 0 ft / 0 m
Waypoints 4
Social Downloads 0
Likes 0
Share VATSIM

Download

Looking for another format? Having issues loading an existing format? Contact us
Advertisement - Login to hide

Notes

Decoded

Route

MMCZ MUPAL CHAME MPTO

ID Type Via Altitude Latitude Longitude Leg Dist Tot Dist Heading (true) Name
O MMCZ APT - 0 ft / 0 m 20.52011˚ -86.93997˚ - 0 nm - -
MUPAL FIX - 0 ft / 0 m 13.19361˚ -81.98389˚ 524 nm 524 nm 146° / 148° -
CHAME FIX - 0 ft / 0 m 8.62978˚ -79.77561˚ 303 nm 827 nm 154° / 155° -
O MPTO APT - 0 ft / 0 m 9.07368˚ -79.38881˚ 35 nm 862 nm 41° / 41° -

Altitude Profile

Advertisement - Login to hide

Weather


0- 5 10 15 20 25 30 35+ Temperature / ° C

Clouds and Precipitation
Forecast for 2017-12-13 00:00 UTC. Updated an hour ago

Ground ~20,000 ft ~40,000 ft Winds

MMCZ

Details ICAO MMCZ (CZM)
Name Cozumel Intl
Region Mexico
Timezone America/Cancun (UTC-5.0)
Stats Elevation 15 ft / 5 m (AMSL)
Location 20.522845° -86.928142°
Runways 2
Magnetic Variation 1.776° W

METAR

Not found

TAF

TAF MMCZ 121123Z 1212/1318 34010KT P6SM SCT250 FM121700 36015KT P6SM SCT015 SCT250 FM130300 34008KT P6SM SCT015 SCT250 FM131600 35012KT P6SM SCT015

Decode

Departure Runways

ID Width Length Bearing (true) Bearing (mag) Surface Threshold Offset Overrun Length
05 148 ft / 45 m 10,172 ft / 3,101 m 55.07° 56.85° Asphalt 2,530 ft / 771 m 0 ft / 0 m
11 148 ft / 45 m 8,866 ft / 2,702 m 115.78° 117.56° Asphalt 656 ft / 200 m 0 ft / 0 m
23 148 ft / 45 m 10,172 ft / 3,101 m 235.08° 236.86° Asphalt 0 ft / 0 m 190 ft / 58 m
29 148 ft / 45 m 8,866 ft / 2,702 m 295.79° 297.57° Asphalt 0 ft / 0 m 210 ft / 64 m

MPTO

Details ICAO MPTO (PTY)
Name Tocumen Intl
Region Panama
Timezone America/Panama (UTC-5.0)
Stats Elevation 135 ft / 41 m (AMSL)
Location 9.071364° -79.383458°
Runways 2
Magnetic Variation 4.530° W

METAR

MPTO 122000Z 30014KT 9000 VCSH SCT018CB SCT080 28/22 Q1011 NOSIG

Decode

TAF

TAF MPTO 121700Z 1218/1324 30018KT 9999 SCT020 PROB30 TEMPO 1219/1223 8000 RA SCT016 SCT100 BECMG 1223/1303 29008T 9999 SCT020

Decode

Destination Runways

ID Width Length Bearing (true) Bearing (mag) Surface Threshold Offset Overrun Length
03L 200 ft / 61 m 8,798 ft / 2,682 m 30.67° 35.20° Asphalt 0 ft / 0 m 0 ft / 0 m
03R 148 ft / 45 m 10,008 ft / 3,051 m 29.33° 33.86° Concrete 0 ft / 0 m 198 ft / 60 m
21L 148 ft / 45 m 10,008 ft / 3,051 m 209.33° 213.86° Concrete 0 ft / 0 m 198 ft / 60 m
21R 200 ft / 61 m 8,798 ft / 2,682 m 210.67° 215.20° Asphalt 0 ft / 0 m 0 ft / 0 m

Approach Navaids

Runway Type Ident Frequency Range Bearing (true) Bearing (mag) Slope Elevation
03R Localiser INAT 110.70 MHz 18 nm / 33 km 29.33° 33.86° - 50 ft / 15 m (AMSL)
03R Glidescope INAT 110.70 MHz 10 nm / 19 km 29.33° 33.86° 3.00° 50 ft / 15 m (AMSL)
03R DME INAT 110.70 MHz 18 nm / 33 km - - - 50 ft / 15 m (AMSL)